• Join FlightAware (Why Join?)
  • Login
  • US Flag 
05:33PM EDT


 

Airport Tracker/Info


-or-


 

Live Flight TrackerFlight Track Log ✈ JBU790 ✈ 27-Dec-2013 ✈ KDCA - KBOS

Flight Track Log - Related Links

Times and Time Zones

All times are in EST time to prevent confusion due to time zone crossing. See the JBU790 flight status page for this flight to view local times or setup timezone preferences in your user account.

Time Position Orientation Groundspeed Altitude Reporting Facility
EST Latitude Longitude Course Direction KTS MPH feet Rate Location/Type
05:35PM 38.8000 -77.0333 67° East 167 192 2,600  Level Potomac TRACON
05:36PM 38.7500 -77.0167 165° South 232 267 4,800 2,520 Climbing Potomac TRACON
05:37PM 38.7811 -76.9097 70° East 214 246 8,800 2,520 Climbing Washington Center
05:38PM 39.1132 -76.6268 57° Northeast  Level Estimated
05:38PM 38.8544 -76.8658 25° Northeast 240 276 11,100  Level Washington Center
05:39PM 39.1783 -76.5236 83° East  Level Estimated
05:39PM 38.9428 -76.8086 27° Northeast 300 345 13,200  Level Washington Center
05:40PM 39.2433 -76.4202 67° East  Level Estimated
05:40PM 38.9939 -76.6867 62° Northeast 336 387 16,000  Level Washington Center
05:41PM 39.0386 -76.5564 66° East 365 420 18,000 1,980 Climbing Washington Center
05:42PM 39.0836 -76.4206 67° East 388 447 20,000 1,800 Climbing Washington Center
05:43PM 39.1303 -76.2767 67° East 413 475 21,600 1,380 Climbing Washington Center
05:44PM 39.1686 -76.1164 73° East 438 504 22,900 660 Climbing Washington Center
05:45PM 39.2044 -75.9558 74° East 454 522 23,000  Climbing Washington Center
05:46PM 39.2611 -75.8114 63° Northeast 454 522 23,000 600 Level Washington Center
05:47PM 39.3425 -75.6856 50° Northeast 446 513 24,200 1,260 Climbing Washington Center
05:48PM 39.4322 -75.5700 45° Northeast 446 513 25,500 1,140 Climbing Washington Center
05:49PM 39.5258 -75.4489 45° Northeast 453 521 26,600 1,140 Climbing Washington Center
05:50PM 39.6217 -75.3247 45° Northeast 464 534 27,800 1,440 Climbing Washington Center
05:52PM 39.7733 -75.1058 48° Northeast 497 572 30,400 1,200 Climbing New York Center
05:53PM 39.8700 -74.9686 47° Northeast 503 579 31,000 300 Climbing New York Center
05:54PM 39.9642 -74.8361 47° Northeast 503 579 31,000  Level New York Center
05:55PM 40.0539 -74.7111 47° Northeast 509 586 31,000  Level New York Center
05:56PM 40.1547 -74.5675 47° Northeast 502 578 31,000 -120 Level New York Center
05:57PM 40.2439 -74.4447 46° Northeast 502 578 30,800 -960 Descending New York Center
05:58PM 40.3494 -74.3358 38° Northeast 496 571 29,100 -1,440 Descending New York Center
05:59PM 40.4486 -74.2264 40° Northeast 476 548 28,000 -600 Descending New York Center
06:00PM 40.5317 -74.0942 50° Northeast 461 531 28,000  Level New York Center
06:01PM 40.6003 -73.9444 59° Northeast 466 536 28,000 -420 Level New York Center
06:03PM 40.7281 -73.7033 55° Northeast 484 557 27,000 -420 Descending Boston Center
06:04PM 40.8008 -73.5586 56° Northeast 474 545 27,000  Level Boston Center
06:05PM 40.8761 -73.4147 55° Northeast 477 549 27,000 -360 Level Boston Center
06:06PM 40.9653 -73.2850 48° Northeast 463 533 26,300 -900 Descending Boston Center
06:07PM 41.0503 -73.1608 48° Northeast 459 528 25,300 -1,020 Descending Boston Center
06:08PM 41.1331 -73.0356 49° Northeast 455 524 24,300 -960 Descending Boston Center
06:09PM 41.1928 -72.8869 62° Northeast 463 533 23,400 -660 Descending Boston Center
06:10PM 41.2492 -72.7361 64° Northeast 460 529 23,000 -240 Descending Boston Center
06:11PM 41.3075 -72.5792 64° Northeast 457 526 23,000  Level Boston Center
06:12PM 41.3658 -72.4292 63° Northeast 454 522 23,000  Level Boston Center
06:13PM 41.4231 -72.2800 63° Northeast 452 520 23,000 -120 Level Boston Center
06:14PM 41.4808 -72.1269 63° Northeast 458 527 22,800 -1,260 Descending Boston Center
06:15PM 41.5439 -71.9592 63° Northeast 450 518 20,500 -2,220 Descending Boston Center
06:16PM 41.6014 -71.8086 63° Northeast 436 502 18,400 -1,740 Descending Boston Center
06:17PM 41.6525 -71.6722 63° Northeast 416 479 17,000 -1,680 Descending Boston Center
06:18PM 41.7058 -71.5317 63° Northeast 406 467 15,100 -1,620 Descending Boston Center
06:19PM 41.7519 -71.4031 64° Northeast 390 449 13,800 -1,260 Descending Boston Center
06:20PM 41.7986 -71.2778 63° Northeast 356 410 12,600 -1,260 Descending Boston Center
06:21PM 41.8400 -71.1658 64° Northeast 340 391 11,300 -900 Descending Boston Center
06:22PM 41.8833 -71.0667 60° Northeast 335 386 11,000 -180 Descending KA90
06:23PM 41.9167 -70.9667 66° East 336 387 11,000 -120 Level KA90
06:24PM 41.9667 -70.8500 60° Northeast 335 386 10,800 -540 Descending KA90
06:25PM 42.0167 -70.7500 56° Northeast 304 350 9,900 -1,020 Descending KA90
06:26PM 42.0833 -70.6667 43° Northeast 293 337 8,800 -1,140 Descending KA90
06:27PM 42.1333 -70.6167 37° Northeast 256 295 7,800 -1,320 Descending KA90
06:28PM 42.2000 -70.5833 20° North 260 299 6,300 -1,500 Descending KA90
06:29PM 42.2667 -70.6167 340° North 221 254 4,500 -1,500 Descending KA90
06:30PM 42.3333 -70.6500 340° North 233 268 3,000 -780 Descending KA90
06:31PM 42.3667 -70.7000 312° West 198 228 3,000  Level KA90
06:32PM 42.4000 -70.7500 312° West 196 226 3,000 -240 Level KA90
06:33PM 42.3833 -70.8167 251° West 165 190 2,600 -660 Descending KA90
06:34PM 42.3833 -70.8833 270° West 164 189 1,800 -840 Descending KA90
06:35PM 42.3667 -70.9333 246° West 110 127 1,000 -720 Descending KA90
06:36PM 42.3667 -70.9667 270° West 121 139 300 -720 Descending KA90
06:38PM 42.3500 -71.0000 North  Level FlightAware Approximate